sensor_id;sensor_type;location;lat;lon;timestamp;temperature;humidity
69281;SHT31;56392;51.082;17.080;2023-02-26T00:03:55;2.09;79.79
69281;SHT31;56392;51.082;17.080;2023-02-26T00:09:19;2.15;80.19
69281;SHT31;56392;51.082;17.080;2023-02-26T00:14:43;2.16;80.24
69281;SHT31;56392;51.082;17.080;2023-02-26T00:20:10;2.13;80.30
69281;SHT31;56392;51.082;17.080;2023-02-26T00:25:33;2.12;80.45
69281;SHT31;56392;51.082;17.080;2023-02-26T00:30:57;2.21;80.24
69281;SHT31;56392;51.082;17.080;2023-02-26T00:36:23;2.25;79.99
69281;SHT31;56392;51.082;17.080;2023-02-26T00:41:47;2.21;80.02
69281;SHT31;56392;51.082;17.080;2023-02-26T00:47:19;2.19;79.41
69281;SHT31;56392;51.082;17.080;2023-02-26T00:52:55;2.15;79.22
69281;SHT31;56392;51.082;17.080;2023-02-26T00:58:21;2.23;79.49
69281;SHT31;56392;51.082;17.080;2023-02-26T01:03:44;2.19;78.82
69281;SHT31;56392;51.082;17.080;2023-02-26T01:09:14;2.13;78.82
69281;SHT31;56392;51.082;17.080;2023-02-26T01:14:39;2.16;78.95
69281;SHT31;56392;51.082;17.080;2023-02-26T01:20:05;2.21;78.87
69281;SHT31;56392;51.082;17.080;2023-02-26T01:25:38;2.19;79.21
69281;SHT31;56392;51.082;17.080;2023-02-26T01:31:04;2.12;79.31
69281;SHT31;56392;51.082;17.080;2023-02-26T01:36:33;2.09;79.39
69281;SHT31;56392;51.082;17.080;2023-02-26T01:42:05;2.11;79.98
69281;SHT31;56392;51.082;17.080;2023-02-26T01:47:39;2.05;80.33
69281;SHT31;56392;51.082;17.080;2023-02-26T01:53:20;2.08;80.32
69281;SHT31;56392;51.082;17.080;2023-02-26T01:58:46;2.05;80.41
69281;SHT31;56392;51.082;17.080;2023-02-26T02:04:12;2.08;80.60
69281;SHT31;56392;51.082;17.080;2023-02-26T02:09:35;2.03;81.18
69281;SHT31;56392;51.082;17.080;2023-02-26T02:15:06;2.01;80.90
69281;SHT31;56392;51.082;17.080;2023-02-26T02:26:52;2.02;80.51
69281;SHT31;56392;51.082;17.080;2023-02-26T02:32:21;1.92;80.61
69281;SHT31;56392;51.082;17.080;2023-02-26T02:37:49;1.95;80.60
69281;SHT31;56392;51.082;17.080;2023-02-26T02:43:19;2.01;80.64
69281;SHT31;56392;51.082;17.080;2023-02-26T02:48:48;2.05;80.84
69281;SHT31;56392;51.082;17.080;2023-02-26T02:54:14;2.02;80.73
69281;SHT31;56392;51.082;17.080;2023-02-26T02:59:41;1.99;80.79
69281;SHT31;56392;51.082;17.080;2023-02-26T03:05:07;1.99;80.15
69281;SHT31;56392;51.082;17.080;2023-02-26T03:10:31;2.02;80.16
69281;SHT31;56392;51.082;17.080;2023-02-26T03:16:04;1.99;79.84
69281;SHT31;56392;51.082;17.080;2023-02-26T03:21:37;2.01;79.28
69281;SHT31;56392;51.082;17.080;2023-02-26T03:27:08;1.99;79.28
69281;SHT31;56392;51.082;17.080;2023-02-26T03:32:39;2.05;78.74
69281;SHT31;56392;51.082;17.080;2023-02-26T03:38:08;2.01;78.41
69281;SHT31;56392;51.082;17.080;2023-02-26T03:43:36;1.98;78.06
69281;SHT31;56392;51.082;17.080;2023-02-26T03:49:04;1.99;78.31
69281;SHT31;56392;51.082;17.080;2023-02-26T03:54:33;1.92;78.14
69281;SHT31;56392;51.082;17.080;2023-02-26T03:59:56;1.88;78.07
69281;SHT31;56392;51.082;17.080;2023-02-26T04:05:22;1.92;78.12
69281;SHT31;56392;51.082;17.080;2023-02-26T04:10:54;1.84;77.96
69281;SHT31;56392;51.082;17.080;2023-02-26T04:16:19;1.91;77.80
69281;SHT31;56392;51.082;17.080;2023-02-26T04:21:42;1.86;77.93
69281;SHT31;56392;51.082;17.080;2023-02-26T04:27:07;1.85;77.84
69281;SHT31;56392;51.082;17.080;2023-02-26T04:32:30;1.81;77.64
69281;SHT31;56392;51.082;17.080;2023-02-26T04:37:53;1.82;77.75
69281;SHT31;56392;51.082;17.080;2023-02-26T04:43:18;1.88;77.74
69281;SHT31;56392;51.082;17.080;2023-02-26T04:48:41;1.77;77.02
69281;SHT31;56392;51.082;17.080;2023-02-26T04:54:04;1.75;77.16
69281;SHT31;56392;51.082;17.080;2023-02-26T04:59:28;1.82;77.42
69281;SHT31;56392;51.082;17.080;2023-02-26T05:04:51;1.86;77.34
69281;SHT31;56392;51.082;17.080;2023-02-26T05:15:39;1.84;76.71
69281;SHT31;56392;51.082;17.080;2023-02-26T05:21:03;1.77;76.28
69281;SHT31;56392;51.082;17.080;2023-02-26T05:26:27;1.75;76.20
69281;SHT31;56392;51.082;17.080;2023-02-26T05:31:51;1.65;76.16
69281;SHT31;56392;51.082;17.080;2023-02-26T05:37:14;1.74;76.68
69281;SHT31;56392;51.082;17.080;2023-02-26T05:42:38;1.74;76.59
69281;SHT31;56392;51.082;17.080;2023-02-26T05:48:03;1.77;76.98
69281;SHT31;56392;51.082;17.080;2023-02-26T05:53:26;1.71;76.92
69281;SHT31;56392;51.082;17.080;2023-02-26T05:58:50;1.65;76.77
69281;SHT31;56392;51.082;17.080;2023-02-26T06:04:14;1.75;76.30
69281;SHT31;56392;51.082;17.080;2023-02-26T06:09:38;1.72;76.72
69281;SHT31;56392;51.082;17.080;2023-02-26T06:15:01;1.72;76.41
69281;SHT31;56392;51.082;17.080;2023-02-26T06:20:26;1.81;76.73
69281;SHT31;56392;51.082;17.080;2023-02-26T06:25:49;1.74;76.07
69281;SHT31;56392;51.082;17.080;2023-02-26T06:31:13;1.79;76.62
69281;SHT31;56392;51.082;17.080;2023-02-26T06:36:37;1.81;76.20
69281;SHT31;56392;51.082;17.080;2023-02-26T06:42:00;1.81;75.85
69281;SHT31;56392;51.082;17.080;2023-02-26T06:47:23;1.84;76.13
69281;SHT31;56392;51.082;17.080;2023-02-26T06:52:48;1.88;75.70
69281;SHT31;56392;51.082;17.080;2023-02-26T06:58:12;1.85;75.50
69281;SHT31;56392;51.082;17.080;2023-02-26T07:03:35;1.86;76.36
69281;SHT31;56392;51.082;17.080;2023-02-26T07:08:59;1.88;75.70
69281;SHT31;56392;51.082;17.080;2023-02-26T07:14:22;1.86;74.90
69281;SHT31;56392;51.082;17.080;2023-02-26T07:19:46;1.84;75.16
69281;SHT31;56392;51.082;17.080;2023-02-26T07:25:11;1.85;75.24
69281;SHT31;56392;51.082;17.080;2023-02-26T07:30:35;1.85;75.52
69281;SHT31;56392;51.082;17.080;2023-02-26T07:35:58;1.88;75.57
69281;SHT31;56392;51.082;17.080;2023-02-26T07:41:22;1.97;75.96
69281;SHT31;56392;51.082;17.080;2023-02-26T07:46:46;1.99;76.22
69281;SHT31;56392;51.082;17.080;2023-02-26T07:52:09;2.05;76.71
69281;SHT31;56392;51.082;17.080;2023-02-26T07:57:33;2.06;75.94
69281;SHT31;56392;51.082;17.080;2023-02-26T08:02:59;2.05;76.96
69281;SHT31;56392;51.082;17.080;2023-02-26T08:08:22;2.06;76.69
69281;SHT31;56392;51.082;17.080;2023-02-26T08:13:46;2.05;76.77
69281;SHT31;56392;51.082;17.080;2023-02-26T08:19:09;2.08;76.18
69281;SHT31;56392;51.082;17.080;2023-02-26T08:24:33;2.05;75.47
69281;SHT31;56392;51.082;17.080;2023-02-26T08:29:57;2.11;75.66
69281;SHT31;56392;51.082;17.080;2023-02-26T08:35:21;2.19;76.19
69281;SHT31;56392;51.082;17.080;2023-02-26T08:40:44;2.28;76.27
69281;SHT31;56392;51.082;17.080;2023-02-26T08:46:08;2.28;75.68
69281;SHT31;56392;51.082;17.080;2023-02-26T08:51:31;2.30;75.30
69281;SHT31;56392;51.082;17.080;2023-02-26T08:56:55;2.29;75.28
69281;SHT31;56392;51.082;17.080;2023-02-26T09:02:19;2.28;75.56
69281;SHT31;56392;51.082;17.080;2023-02-26T09:07:43;2.28;75.80
69281;SHT31;56392;51.082;17.080;2023-02-26T09:13:07;2.22;75.69
69281;SHT31;56392;51.082;17.080;2023-02-26T09:18:32;2.21;75.70
69281;SHT31;56392;51.082;17.080;2023-02-26T09:23:55;2.28;76.01
69281;SHT31;56392;51.082;17.080;2023-02-26T09:29:19;2.36;76.35
69281;SHT31;56392;51.082;17.080;2023-02-26T09:34:45;2.43;75.85
69281;SHT31;56392;51.082;17.080;2023-02-26T09:40:10;2.43;75.25
69281;SHT31;56392;51.082;17.080;2023-02-26T09:45:39;2.44;75.30
69281;SHT31;56392;51.082;17.080;2023-02-26T09:51:08;2.54;75.54
69281;SHT31;56392;51.082;17.080;2023-02-26T09:56:34;2.57;75.92
69281;SHT31;56392;51.082;17.080;2023-02-26T10:02:03;2.73;75.28
69281;SHT31;56392;51.082;17.080;2023-02-26T10:07:33;2.72;74.92
69281;SHT31;56392;51.082;17.080;2023-02-26T10:13:00;2.68;75.15
69281;SHT31;56392;51.082;17.080;2023-02-26T10:18:27;2.76;76.32
69281;SHT31;56392;51.082;17.080;2023-02-26T10:23:55;2.77;75.89
69281;SHT31;56392;51.082;17.080;2023-02-26T10:29:22;2.80;75.52
69281;SHT31;56392;51.082;17.080;2023-02-26T10:34:52;2.84;75.58
69281;SHT31;56392;51.082;17.080;2023-02-26T10:40:25;2.85;74.98
69281;SHT31;56392;51.082;17.080;2023-02-26T10:46:14;2.87;74.20
69281;SHT31;56392;51.082;17.080;2023-02-26T10:51:39;2.97;74.95
69281;SHT31;56392;51.082;17.080;2023-02-26T10:57:04;3.07;74.33
69281;SHT31;56392;51.082;17.080;2023-02-26T11:02:34;3.28;74.67
69281;SHT31;56392;51.082;17.080;2023-02-26T11:08:02;3.45;73.69
69281;SHT31;56392;51.082;17.080;2023-02-26T11:13:28;3.51;72.32
69281;SHT31;56392;51.082;17.080;2023-02-26T11:18:54;3.54;72.25
69281;SHT31;56392;51.082;17.080;2023-02-26T11:24:22;3.62;71.51
69281;SHT31;56392;51.082;17.080;2023-02-26T11:29:55;3.73;71.56
69281;SHT31;56392;51.082;17.080;2023-02-26T11:35:22;3.76;71.68
69281;SHT31;56392;51.082;17.080;2023-02-26T11:40:49;3.82;70.71
69281;SHT31;56392;51.082;17.080;2023-02-26T11:46:15;3.79;70.95
69281;SHT31;56392;51.082;17.080;2023-02-26T11:51:41;3.65;71.34
69281;SHT31;56392;51.082;17.080;2023-02-26T11:57:06;3.56;71.91
69281;SHT31;56392;51.082;17.080;2023-02-26T12:02:38;3.62;71.94
69281;SHT31;56392;51.082;17.080;2023-02-26T12:08:03;3.48;72.71
69281;SHT31;56392;51.082;17.080;2023-02-26T12:13:36;3.34;73.02
69281;SHT31;56392;51.082;17.080;2023-02-26T12:19:07;3.35;76.48
69281;SHT31;56392;51.082;17.080;2023-02-26T12:24:58;3.24;76.48
69281;SHT31;56392;51.082;17.080;2023-02-26T12:30:43;3.24;76.80
69281;SHT31;56392;51.082;17.080;2023-02-26T12:36:19;3.34;77.08
69281;SHT31;56392;51.082;17.080;2023-02-26T12:41:56;3.46;76.25
69281;SHT31;56392;51.082;17.080;2023-02-26T12:47:32;3.45;75.77
69281;SHT31;56392;51.082;17.080;2023-02-26T12:53:18;3.45;76.64
69281;SHT31;56392;51.082;17.080;2023-02-26T12:58:58;3.26;78.28
69281;SHT31;56392;51.082;17.080;2023-02-26T13:04:55;3.00;79.26
69281;SHT31;56392;51.082;17.080;2023-02-26T13:10:30;2.97;80.30
69281;SHT31;56392;51.082;17.080;2023-02-26T13:16:05;2.94;81.48
69281;SHT31;56392;51.082;17.080;2023-02-26T13:21:36;2.95;80.42
69281;SHT31;56392;51.082;17.080;2023-02-26T13:27:04;3.16;80.03
69281;SHT31;56392;51.082;17.080;2023-02-26T13:32:31;3.35;78.08
69281;SHT31;56392;51.082;17.080;2023-02-26T13:38:01;3.51;76.90
69281;SHT31;56392;51.082;17.080;2023-02-26T13:43:35;3.55;77.50
69281;SHT31;56392;51.082;17.080;2023-02-26T13:49:11;3.51;77.34
69281;SHT31;56392;51.082;17.080;2023-02-26T13:54:43;3.08;78.69
69281;SHT31;56392;51.082;17.080;2023-02-26T14:00:21;3.00;79.58
69281;SHT31;56392;51.082;17.080;2023-02-26T14:05:54;2.91;78.90
69281;SHT31;56392;51.082;17.080;2023-02-26T14:11:43;2.94;77.77
69281;SHT31;56392;51.082;17.080;2023-02-26T14:17:38;2.98;77.66
69281;SHT31;56392;51.082;17.080;2023-02-26T14:23:19;3.01;77.51
69281;SHT31;56392;51.082;17.080;2023-02-26T14:29:06;3.11;77.58
69281;SHT31;56392;51.082;17.080;2023-02-26T14:34:33;3.08;77.69
69281;SHT31;56392;51.082;17.080;2023-02-26T14:40:04;3.04;76.83
69281;SHT31;56392;51.082;17.080;2023-02-26T14:45:31;3.04;78.12
69281;SHT31;56392;51.082;17.080;2023-02-26T14:51:07;3.08;77.17
69281;SHT31;56392;51.082;17.080;2023-02-26T14:56:53;3.01;77.55
69281;SHT31;56392;51.082;17.080;2023-02-26T15:02:27;3.03;77.45
69281;SHT31;56392;51.082;17.080;2023-02-26T15:08:08;2.97;77.79
69281;SHT31;56392;51.082;17.080;2023-02-26T15:13:46;2.91;78.90
69281;SHT31;56392;51.082;17.080;2023-02-26T15:19:26;2.97;79.00
69281;SHT31;56392;51.082;17.080;2023-02-26T15:24:53;2.93;78.73
69281;SHT31;56392;51.082;17.080;2023-02-26T15:30:20;2.87;78.14
69281;SHT31;56392;51.082;17.080;2023-02-26T15:35:44;2.84;77.91
69281;SHT31;56392;51.082;17.080;2023-02-26T15:41:10;2.76;77.57
69281;SHT31;56392;51.082;17.080;2023-02-26T15:46:40;2.74;77.92
69281;SHT31;56392;51.082;17.080;2023-02-26T15:52:06;2.67;76.93
69281;SHT31;56392;51.082;17.080;2023-02-26T15:57:32;2.66;76.10
69281;SHT31;56392;51.082;17.080;2023-02-26T16:02:57;2.61;76.25
69281;SHT31;56392;51.082;17.080;2023-02-26T16:08:20;2.60;76.29
69281;SHT31;56392;51.082;17.080;2023-02-26T16:13:46;2.63;76.51
69281;SHT31;56392;51.082;17.080;2023-02-26T16:19:13;2.61;76.52
69281;SHT31;56392;51.082;17.080;2023-02-26T16:24:37;2.61;76.95
69281;SHT31;56392;51.082;17.080;2023-02-26T16:30:04;2.63;77.26
69281;SHT31;56392;51.082;17.080;2023-02-26T16:35:32;2.61;77.63
69281;SHT31;56392;51.082;17.080;2023-02-26T16:40:58;2.61;77.09
69281;SHT31;56392;51.082;17.080;2023-02-26T16:46:33;2.68;77.15
69281;SHT31;56392;51.082;17.080;2023-02-26T16:51:58;2.68;77.28
69281;SHT31;56392;51.082;17.080;2023-02-26T16:57:26;2.66;76.96
69281;SHT31;56392;51.082;17.080;2023-02-26T17:02:52;2.54;77.40
69281;SHT31;56392;51.082;17.080;2023-02-26T17:08:18;2.46;77.43
69281;SHT31;56392;51.082;17.080;2023-02-26T17:13:44;2.39;77.36
69281;SHT31;56392;51.082;17.080;2023-02-26T17:19:08;2.28;77.49
69281;SHT31;56392;51.082;17.080;2023-02-26T17:24:33;2.18;77.58
69281;SHT31;56392;51.082;17.080;2023-02-26T17:29:58;2.15;77.67
69281;SHT31;56392;51.082;17.080;2023-02-26T17:35:23;2.03;78.19
69281;SHT31;56392;51.082;17.080;2023-02-26T17:40:46;1.98;78.35
69281;SHT31;56392;51.082;17.080;2023-02-26T17:46:11;1.97;78.36
69281;SHT31;56392;51.082;17.080;2023-02-26T17:51:36;1.91;78.56
69281;SHT31;56392;51.082;17.080;2023-02-26T17:57:00;1.84;79.20
69281;SHT31;56392;51.082;17.080;2023-02-26T18:02:24;1.78;79.42
69281;SHT31;56392;51.082;17.080;2023-02-26T18:07:49;1.81;79.19
69281;SHT31;56392;51.082;17.080;2023-02-26T18:13:14;1.85;79.70
69281;SHT31;56392;51.082;17.080;2023-02-26T18:18:38;1.85;79.72
69281;SHT31;56392;51.082;17.080;2023-02-26T18:24:03;1.89;79.89
69281;SHT31;56392;51.082;17.080;2023-02-26T18:29:27;1.99;79.75
69281;SHT31;56392;51.082;17.080;2023-02-26T18:34:50;2.03;78.49
69281;SHT31;56392;51.082;17.080;2023-02-26T18:40:17;2.15;77.52
69281;SHT31;56392;51.082;17.080;2023-02-26T18:45:45;2.18;77.18
69281;SHT31;56392;51.082;17.080;2023-02-26T18:51:09;2.16;76.37
69281;SHT31;56392;51.082;17.080;2023-02-26T18:56:33;2.18;75.75
69281;SHT31;56392;51.082;17.080;2023-02-26T19:01:59;2.16;75.16
69281;SHT31;56392;51.082;17.080;2023-02-26T19:07:22;2.15;75.39
69281;SHT31;56392;51.082;17.080;2023-02-26T19:12:47;2.13;74.37
69281;SHT31;56392;51.082;17.080;2023-02-26T19:18:11;2.16;73.44
69281;SHT31;56392;51.082;17.080;2023-02-26T19:23:34;2.12;73.42
69281;SHT31;56392;51.082;17.080;2023-02-26T19:28:59;2.08;73.63
69281;SHT31;56392;51.082;17.080;2023-02-26T19:34:22;2.15;74.38
69281;SHT31;56392;51.082;17.080;2023-02-26T19:39:46;2.15;73.54
69281;SHT31;56392;51.082;17.080;2023-02-26T19:45:11;2.15;73.59
69281;SHT31;56392;51.082;17.080;2023-02-26T19:50:34;2.19;73.42
69281;SHT31;56392;51.082;17.080;2023-02-26T19:55:57;2.19;73.41
69281;SHT31;56392;51.082;17.080;2023-02-26T20:01:22;2.23;73.97
69281;SHT31;56392;51.082;17.080;2023-02-26T20:06:46;2.16;73.51
69281;SHT31;56392;51.082;17.080;2023-02-26T20:12:12;2.16;73.44
69281;SHT31;56392;51.082;17.080;2023-02-26T20:17:36;2.19;73.46
69281;SHT31;56392;51.082;17.080;2023-02-26T20:23:00;2.13;73.37
69281;SHT31;56392;51.082;17.080;2023-02-26T20:28:25;2.11;73.19
69281;SHT31;56392;51.082;17.080;2023-02-26T20:33:50;2.06;73.19
69281;SHT31;56392;51.082;17.080;2023-02-26T20:39:13;2.05;73.54
69281;SHT31;56392;51.082;17.080;2023-02-26T20:44:36;2.06;72.98
69281;SHT31;56392;51.082;17.080;2023-02-26T20:50:01;2.05;73.47
69281;SHT31;56392;51.082;17.080;2023-02-26T20:55:24;2.01;74.01
69281;SHT31;56392;51.082;17.080;2023-02-26T21:00:48;2.06;73.98
69281;SHT31;56392;51.082;17.080;2023-02-26T21:06:12;2.08;73.35
69281;SHT31;56392;51.082;17.080;2023-02-26T21:11:36;2.09;73.44
69281;SHT31;56392;51.082;17.080;2023-02-26T21:17:00;2.09;72.89
69281;SHT31;56392;51.082;17.080;2023-02-26T21:22:25;2.06;72.62
69281;SHT31;56392;51.082;17.080;2023-02-26T21:27:48;2.08;72.61
69281;SHT31;56392;51.082;17.080;2023-02-26T21:33:11;2.02;72.55
69281;SHT31;56392;51.082;17.080;2023-02-26T21:38:36;2.05;71.98
69281;SHT31;56392;51.082;17.080;2023-02-26T21:44:03;2.09;71.70
69281;SHT31;56392;51.082;17.080;2023-02-26T21:49:26;2.08;71.76
69281;SHT31;56392;51.082;17.080;2023-02-26T21:54:53;2.11;71.91
69281;SHT31;56392;51.082;17.080;2023-02-26T22:00:18;2.08;72.48
69281;SHT31;56392;51.082;17.080;2023-02-26T22:05:42;2.09;72.22
69281;SHT31;56392;51.082;17.080;2023-02-26T22:11:07;2.11;72.35
69281;SHT31;56392;51.082;17.080;2023-02-26T22:16:31;2.06;72.69
69281;SHT31;56392;51.082;17.080;2023-02-26T22:21:58;2.12;72.53
69281;SHT31;56392;51.082;17.080;2023-02-26T22:27:22;2.13;72.26
69281;SHT31;56392;51.082;17.080;2023-02-26T22:32:45;2.11;72.79
69281;SHT31;56392;51.082;17.080;2023-02-26T22:38:09;2.13;72.85
69281;SHT31;56392;51.082;17.080;2023-02-26T22:43:34;2.05;72.53
69281;SHT31;56392;51.082;17.080;2023-02-26T22:48:57;2.08;72.19
69281;SHT31;56392;51.082;17.080;2023-02-26T22:54:20;2.09;72.62
69281;SHT31;56392;51.082;17.080;2023-02-26T22:59:45;2.12;72.02
69281;SHT31;56392;51.082;17.080;2023-02-26T23:05:09;2.18;71.71
69281;SHT31;56392;51.082;17.080;2023-02-26T23:10:32;2.12;71.21
69281;SHT31;56392;51.082;17.080;2023-02-26T23:15:57;2.13;71.59
69281;SHT31;56392;51.082;17.080;2023-02-26T23:21:20;2.11;72.39
69281;SHT31;56392;51.082;17.080;2023-02-26T23:26:43;2.15;72.33
69281;SHT31;56392;51.082;17.080;2023-02-26T23:32:08;2.18;71.63
69281;SHT31;56392;51.082;17.080;2023-02-26T23:37:31;2.16;71.90
69281;SHT31;56392;51.082;17.080;2023-02-26T23:42:54;2.18;72.64
69281;SHT31;56392;51.082;17.080;2023-02-26T23:48:19;2.16;72.36
69281;SHT31;56392;51.082;17.080;2023-02-26T23:53:45;2.12;72.39
69281;SHT31;56392;51.082;17.080;2023-02-26T23:59:08;2.08;72.92
